createdAt,value
2022-12-11T00:03:22.674Z,99736.47
2022-12-11T00:07:24.140Z,99728.53
2022-12-11T00:11:27.472Z,99734.97
2022-12-11T00:15:29.280Z,99742.94
2022-12-11T00:19:30.836Z,99743.84
2022-12-11T00:23:34.791Z,99743.16
2022-12-11T00:27:36.565Z,99747.63
2022-12-11T00:31:38.120Z,99746.75
2022-12-11T00:35:46.935Z,99742.56
2022-12-11T00:39:50.626Z,99744.34
2022-12-11T00:43:52.268Z,99740.06
2022-12-11T00:47:54.774Z,99744.53
2022-12-11T00:51:56.457Z,99741.97
2022-12-11T00:55:57.932Z,99747.34
2022-12-11T00:59:59.467Z,99744.06
2022-12-11T01:04:00.884Z,99743.16
2022-12-11T01:08:03.091Z,99750.88
2022-12-11T01:12:04.802Z,99743.91
2022-12-11T01:16:12.345Z,99747.66
2022-12-11T01:20:13.867Z,99751.19
2022-12-11T01:24:15.434Z,99751.34
2022-12-11T01:28:16.901Z,99753.97
2022-12-11T01:32:18.465Z,99751.34
2022-12-11T01:36:22.208Z,99756.56
2022-12-11T01:40:23.861Z,99755.72
2022-12-11T01:44:26.475Z,99758.25
2022-12-11T01:48:31.488Z,99755.53
2022-12-11T01:52:33.536Z,99754.63
2022-12-11T01:56:37.905Z,99749.47
2022-12-11T02:00:39.405Z,99753.03
2022-12-11T02:04:44.131Z,99749.63
2022-12-11T02:08:45.587Z,99748.88
2022-12-11T02:12:58.575Z,99752.47
2022-12-11T02:17:21.748Z,99751.50
2022-12-11T02:21:33.555Z,99741.97
2022-12-11T02:25:53.856Z,99744.53
2022-12-11T02:29:55.447Z,99745.31
2022-12-11T02:34:12.118Z,99743.53
2022-12-11T02:38:27.028Z,99735.94
2022-12-11T02:42:31.647Z,99736.88
2022-12-11T02:46:36.687Z,99736.13
2022-12-11T02:50:44.284Z,99732.53
2022-12-11T02:54:47.583Z,99734.34
2022-12-11T02:58:58.521Z,99738.00
2022-12-11T03:03:01.415Z,99736.19
2022-12-11T03:07:13.246Z,99743.22
2022-12-11T03:11:14.899Z,99743.97
2022-12-11T03:15:19.911Z,99746.72
2022-12-11T03:19:36.094Z,99740.66
2022-12-11T03:23:53.894Z,99746.72
2022-12-11T03:28:07.959Z,99751.06
2022-12-11T03:32:15.767Z,99750.25
2022-12-11T03:36:45.778Z,99748.59
2022-12-11T03:40:51.195Z,99756.41
2022-12-11T03:44:56.690Z,99742.63
2022-12-11T03:49:05.916Z,99755.00
2022-12-11T03:53:08.031Z,99754.84
2022-12-11T03:57:15.084Z,99752.25
2022-12-11T04:01:16.786Z,99741.91
2022-12-11T04:05:18.395Z,99740.09
2022-12-11T04:09:19.907Z,99752.34
2022-12-11T04:13:21.361Z,99748.06
2022-12-11T04:17:41.549Z,99755.13
2022-12-11T04:22:01.780Z,99756.03
2022-12-11T04:26:08.717Z,99758.50
2022-12-11T04:30:13.975Z,99751.53
2022-12-11T04:34:15.608Z,99761.06
2022-12-11T04:38:17.261Z,99745.50
2022-12-11T04:42:18.977Z,99744.69
2022-12-11T04:46:23.235Z,99743.81
2022-12-11T04:50:25.858Z,99744.59
2022-12-11T04:54:29.737Z,99747.25
2022-12-11T04:58:31.373Z,99745.56
2022-12-11T05:02:37.558Z,99742.78
2022-12-11T05:06:39.074Z,99734.06
2022-12-11T05:10:41.791Z,99727.97
2022-12-11T05:14:45.405Z,99726.31
2022-12-11T05:18:47.500Z,99730.97
2022-12-11T05:22:48.990Z,99718.72
2022-12-11T05:26:50.502Z,99724.09
2022-12-11T05:30:56.890Z,99719.75
2022-12-11T05:34:58.369Z,99713.66
2022-12-11T05:39:01.254Z,99718.16
2022-12-11T05:43:02.856Z,99712.41
2022-12-11T05:47:04.401Z,99720.34
2022-12-11T05:51:08.319Z,99712.50
2022-12-11T05:55:10.170Z,99716.84
2022-12-11T05:59:11.898Z,99714.00
2022-12-11T06:03:13.773Z,99717.28
2022-12-11T06:07:15.308Z,99708.59
2022-12-11T06:11:22.320Z,99708.78
2022-12-11T06:15:25.472Z,99714.94
2022-12-11T06:19:28.864Z,99715.75
2022-12-11T06:23:33.438Z,99717.84
2022-12-11T06:27:35.210Z,99716.28
2022-12-11T06:31:36.806Z,99720.06
2022-12-11T06:35:42.022Z,99718.66
2022-12-11T06:39:44.207Z,99722.97
2022-12-11T06:43:45.778Z,99724.63
2022-12-11T06:47:47.310Z,99727.44
2022-12-11T06:51:49.511Z,99731.81
2022-12-11T06:55:51.225Z,99733.59
2022-12-11T06:59:52.874Z,99739.78
2022-12-11T07:03:59.019Z,99739.78
2022-12-11T07:08:01.118Z,99751.94
2022-12-11T07:12:04.038Z,99749.34
2022-12-11T07:16:10.536Z,99756.38
2022-12-11T07:20:12.211Z,99750.19
2022-12-11T07:24:14.136Z,99746.63
2022-12-11T07:28:16.926Z,99752.69
2022-12-11T07:32:18.702Z,99749.91
2022-12-11T07:36:21.048Z,99750.97
2022-12-11T07:40:22.693Z,99765.94
2022-12-11T07:44:24.188Z,99758.28
2022-12-11T07:48:25.650Z,99761.63
2022-12-11T07:52:27.161Z,99770.28
2022-12-11T07:56:30.472Z,99765.94
2022-12-11T08:00:32.815Z,99771.16
2022-12-11T08:04:34.485Z,99773.66
2022-12-11T08:08:36.293Z,99777.94
2022-12-11T08:12:37.823Z,99773.66
2022-12-11T08:16:42.888Z,99771.13
2022-12-11T08:20:44.399Z,99765.91
2022-12-11T08:24:46.884Z,99763.22
2022-12-11T08:28:48.616Z,99770.06
2022-12-11T08:32:50.253Z,99762.13
2022-12-11T08:36:51.754Z,99761.97
2022-12-11T08:40:53.314Z,99750.63
2022-12-11T08:44:54.809Z,99750.59
2022-12-11T08:48:57.743Z,99747.91
2022-12-11T08:52:59.367Z,99754.97
2022-12-11T08:57:00.925Z,99754.59
2022-12-11T09:01:53.753Z,99752.22
2022-12-11T09:05:55.488Z,99760.75
2022-12-11T09:09:57.043Z,99762.94
2022-12-11T09:14:05.168Z,99759.16
2022-12-11T09:18:09.176Z,99767.91
2022-12-11T09:22:11.299Z,99764.22
2022-12-11T09:26:16.077Z,99764.19
2022-12-11T09:30:17.606Z,99756.19
2022-12-11T09:34:22.701Z,99755.84
2022-12-11T09:38:30.195Z,99747.84
2022-12-11T09:43:09.786Z,99761.34
2022-12-11T09:47:21.061Z,99755.22
2022-12-11T09:51:28.484Z,99757.25
2022-12-11T09:55:43.124Z,99750.72
2022-12-11T10:00:31.943Z,99745.56
2022-12-11T10:05:18.910Z,99752.47
2022-12-11T10:09:33.415Z,99751.75
2022-12-11T10:14:06.711Z,99747.09
2022-12-11T10:18:15.842Z,99733.63
2022-12-11T10:22:22.901Z,99724.28
2022-12-11T10:26:24.731Z,99721.75
2022-12-11T10:30:34.589Z,99718.13
2022-12-11T10:34:42.171Z,99713.91
2022-12-11T10:38:46.765Z,99716.47
2022-12-11T10:42:55.271Z,99715.19
2022-12-11T10:47:12.669Z,99718.13
2022-12-11T10:51:14.267Z,99707.78
2022-12-11T10:55:22.677Z,99716.63
2022-12-11T10:59:28.007Z,99701.78
2022-12-11T11:03:29.949Z,99696.72
2022-12-11T11:07:31.716Z,99690.38
2022-12-11T11:11:38.220Z,99692.84
2022-12-11T11:15:39.935Z,99687.09
2022-12-11T11:19:41.729Z,99676.13
2022-12-11T11:23:47.237Z,99676.94
2022-12-11T11:27:55.738Z,99666.91
2022-12-11T11:32:03.960Z,99679.66
2022-12-11T11:36:07.842Z,99674.03
2022-12-11T11:40:19.994Z,99667.34
2022-12-11T11:45:13.848Z,99665.19
2022-12-11T11:49:26.009Z,99671.00
2022-12-11T11:59:31.140Z,99645.63
2022-12-11T12:03:32.765Z,99645.56
2022-12-11T12:13:55.598Z,99642.09
2022-12-11T12:18:28.539Z,99641.16
2022-12-11T12:22:45.640Z,99628.19
2022-12-11T12:27:00.163Z,99639.81
2022-12-11T12:31:31.113Z,99650.22
2022-12-11T12:35:38.005Z,99640.28
2022-12-11T12:39:54.644Z,99639.56
2022-12-11T12:44:08.390Z,99633.81
2022-12-11T12:48:10.226Z,99630.16
2022-12-11T12:52:19.260Z,99631.97
2022-12-11T12:56:22.322Z,99613.91
2022-12-11T13:00:30.337Z,99615.81
2022-12-11T13:09:09.183Z,99609.84
2022-12-11T13:13:35.840Z,99606.56
2022-12-11T13:17:38.848Z,99615.13
2022-12-11T13:21:41.101Z,99605.75
2022-12-11T13:25:51.478Z,99604.66
2022-12-11T13:30:08.621Z,99608.22
2022-12-11T13:34:21.157Z,99608.13
2022-12-11T13:38:23.991Z,99614.06
2022-12-11T13:42:33.783Z,99617.53
2022-12-11T13:46:40.408Z,99623.22
2022-12-11T13:50:43.824Z,99617.91
2022-12-11T13:54:52.301Z,99629.41
2022-12-11T13:58:54.018Z,99628.53
2022-12-11T14:02:59.533Z,99625.13
2022-12-11T14:07:02.055Z,99615.72
2022-12-11T14:11:05.123Z,99626.41
2022-12-11T14:15:07.801Z,99625.88
2022-12-11T14:19:10.906Z,99629.78
2022-12-11T14:23:18.972Z,99639.03
2022-12-11T14:27:21.836Z,99628.91
2022-12-11T14:31:28.216Z,99628.50
2022-12-11T14:35:38.588Z,99627.88
2022-12-11T14:39:46.988Z,99631.34
2022-12-11T14:43:53.517Z,99634.88
2022-12-11T14:47:57.234Z,99636.59
2022-12-11T14:52:01.143Z,99645.41
2022-12-11T14:56:06.321Z,99633.31
2022-12-11T15:00:09.207Z,99637.44
2022-12-11T15:04:14.058Z,99641.09
2022-12-11T15:08:24.901Z,99649.88
2022-12-11T15:12:26.703Z,99649.66
2022-12-11T15:16:33.202Z,99648.66
2022-12-11T15:20:34.854Z,99647.03
2022-12-11T15:24:40.437Z,99639.19
2022-12-11T15:28:42.244Z,99645.41
2022-12-11T15:32:45.181Z,99644.09
2022-12-11T15:36:46.832Z,99642.28
2022-12-11T15:40:48.559Z,99630.91
2022-12-11T15:44:50.911Z,99639.63
2022-12-11T15:48:52.970Z,99638.88
2022-12-11T15:52:56.589Z,99632.72
2022-12-11T15:57:01.766Z,99644.16
2022-12-11T16:01:04.045Z,99641.81
2022-12-11T16:05:07.609Z,99647.84
2022-12-11T16:09:09.141Z,99643.72
2022-12-11T16:13:12.798Z,99658.41
2022-12-11T16:17:15.810Z,99655.97
2022-12-11T16:21:21.373Z,99654.28
2022-12-11T16:25:23.526Z,99653.38
2022-12-11T16:29:25.146Z,99655.06
2022-12-11T16:33:26.842Z,99656.69
2022-12-11T16:37:29.713Z,99660.16
2022-12-11T16:41:31.395Z,99650.53
2022-12-11T16:45:33.932Z,99649.69
2022-12-11T16:49:35.646Z,99650.69
2022-12-11T16:53:37.426Z,99645.53
2022-12-11T16:57:39.265Z,99650.97
2022-12-11T17:01:41.043Z,99655.28
2022-12-11T17:05:43.428Z,99652.66
2022-12-11T17:09:47.311Z,99654.63
2022-12-11T17:13:57.955Z,99650.97
2022-12-11T17:17:59.488Z,99658.63
2022-12-11T17:22:01.127Z,99651.66
2022-12-11T17:26:04.329Z,99657.75
2022-12-11T17:30:06.342Z,99652.63
2022-12-11T17:34:08.090Z,99652.47
2022-12-11T17:38:09.994Z,99655.81
2022-12-11T17:42:11.588Z,99657.88
2022-12-11T17:46:13.741Z,99656.97
2022-12-11T17:50:15.271Z,99659.69
2022-12-11T17:54:16.772Z,99667.59
2022-12-11T17:58:22.016Z,99668.38
2022-12-11T18:02:23.564Z,99662.22
2022-12-11T18:06:25.413Z,99661.31
2022-12-11T18:10:27.317Z,99659.75
2022-12-11T18:14:28.991Z,99656.09
2022-12-11T18:18:31.347Z,99660.44
2022-12-11T18:22:32.991Z,99660.44
2022-12-11T18:26:34.715Z,99666.56
2022-12-11T18:30:36.886Z,99657.56
2022-12-11T18:34:38.439Z,99670.31
2022-12-11T18:38:41.117Z,99671.50
2022-12-11T18:42:43.463Z,99656.16
2022-12-11T18:46:45.059Z,99661.41
2022-12-11T18:50:48.724Z,99659.81
2022-12-11T18:54:52.149Z,99650.66
2022-12-11T18:58:53.768Z,99649.88
2022-12-11T19:03:29.512Z,99643.19
2022-12-11T19:08:23.644Z,99642.75
2022-12-11T19:12:26.622Z,99640.25
2022-12-11T19:16:41.721Z,99638.59
2022-12-11T19:21:12.612Z,99652.31
2022-12-11T19:25:46.625Z,99640.13
2022-12-11T19:29:49.760Z,99650.31
2022-12-11T19:33:52.789Z,99650.38
2022-12-11T19:37:57.645Z,99652.97
2022-12-11T19:41:59.633Z,99649.47
2022-12-11T19:46:02.862Z,99652.88
2022-12-11T19:50:05.746Z,99658.56
2022-12-11T19:54:09.663Z,99647.16
2022-12-11T19:58:11.340Z,99651.63
2022-12-11T20:02:13.468Z,99646.59
2022-12-11T20:06:15.679Z,99639.31
2022-12-11T20:10:17.466Z,99640.38
2022-12-11T20:14:22.485Z,99643.38
2022-12-11T20:19:14.583Z,99649.47
2022-12-11T20:24:07.627Z,99646.91
2022-12-11T20:28:09.443Z,99646.13
2022-12-11T20:32:11.479Z,99652.25
2022-12-11T20:36:15.399Z,99647.34
2022-12-11T20:40:19.849Z,99645.59
2022-12-11T20:44:21.626Z,99644.66
2022-12-11T20:48:23.269Z,99642.81
2022-12-11T20:52:25.444Z,99641.84
2022-12-11T20:56:29.750Z,99651.19
2022-12-11T21:00:31.395Z,99645.88
2022-12-11T21:04:33.132Z,99644.00
2022-12-11T21:08:34.740Z,99630.34
2022-12-11T21:12:38.064Z,99630.38
2022-12-11T21:16:39.888Z,99637.31
2022-12-11T21:21:31.443Z,99639.47
2022-12-11T21:25:33.669Z,99633.34
2022-12-11T21:29:35.300Z,99641.31
2022-12-11T21:33:36.900Z,99637.06
2022-12-11T21:37:42.192Z,99630.91
2022-12-11T21:41:49.821Z,99632.03
2022-12-11T21:46:00.806Z,99631.25
2022-12-11T21:50:04.294Z,99625.22
2022-12-11T22:05:37.831Z,99616.81
2022-12-11T22:09:39.279Z,99617.84
2022-12-11T22:13:40.921Z,99618.66
2022-12-11T22:17:42.371Z,99617.00
2022-12-11T22:21:44.162Z,99614.38
2022-12-11T22:25:45.922Z,99608.22
2022-12-11T22:29:47.450Z,99610.81
2022-12-11T22:33:50.080Z,99614.44
2022-12-11T22:37:52.195Z,99613.56
2022-12-11T22:41:53.727Z,99620.38
2022-12-11T22:45:55.423Z,99614.13
2022-12-11T22:49:56.898Z,99617.38
2022-12-11T22:53:58.653Z,99618.13
2022-12-11T22:58:00.165Z,99616.50
2022-12-11T23:02:02.140Z,99613.16
2022-12-11T23:06:08.233Z,99618.63
2022-12-11T23:10:10.835Z,99617.03
2022-12-11T23:14:16.236Z,99617.78
2022-12-11T23:18:17.788Z,99624.56
2022-12-11T23:22:19.903Z,99634.13
2022-12-11T23:26:22.183Z,99635.03
2022-12-11T23:30:23.875Z,99631.50
2022-12-11T23:34:25.557Z,99634.25
2022-12-11T23:38:27.170Z,99629.13
2022-12-11T23:42:28.993Z,99630.03
2022-12-11T23:46:30.698Z,99638.81
2022-12-11T23:50:34.253Z,99626.72
2022-12-11T23:54:35.866Z,99622.34
2022-12-11T23:58:38.866Z,99631.03
